Ceuta, España

10:02 PM CEST en Julio 24, 2014 (GMT +0200)
Gibraltar Air Base (LXGB) Alt 16 ft | 36.15 °N, 5.35 °W | Change Station

Current weather conditions updated 12 minutes ago

Clear
Despejado
79 ° F
Sensación térmica 79 ° F
N
12
Viento Variable Viento desde OSO

Mañana se prevé un día Mucho más frío que hoy.

Hoy
Alta -- | Baja -- ° F
--% Posibilidad de precipitaciones
Ayer
Alta -- | Baja -- ° F
Precip. -- pul
7:22 AM 9:32 PM
Creciente menguante, 4% visible
Presión 29.83 pul
Visibilidad -9999.0 Millas
Nubes
Punto de rocío 57 ° F
Humedad 47%
Precipitaciones 0.00 pul
Espesor de la nieve No disponible.
UV No disponible.
Polen No disponible.
Calidad del aire No disponible.
Flu Activity No disponible.
METAR LXGB 241950Z 25010KT CAVOK 26/14 Q1010

More Conditions Fewer Conditions

Presión 29.83 pul
Visibilidad -9999.0 Millas
Nubes
Punto de rocío 57 ° F
Humedad 47%
Precipitaciones 0.00 pul
Espesor de la nieve No disponible.
UV No disponible.
Polen No disponible.
Calidad del aire No disponible.
Flu Activity No disponible.
METAR LXGB 241950Z 25010KT CAVOK 26/14 Q1010

More Conditions Fewer Conditions

10-Day Weather Forecast

Almanac

Astronomía

Jul. 24, 2014 Salida Puesta
Hora real 7:22 AM CEST 9:32 PM CEST
Crepúsculo civil 6:53 AM CEST 10:01 PM CEST
Crepúsculo náutico 6:18 AM CEST 10:36 PM CEST
Crepúsculo astronómico 5:40 AM CEST 11:14 PM CEST
Luna 5:18 AM CEST 7:38 PM CEST
Horas de luz 15h 07m
Horas de luz
14h 10m
Tomorrow will be 1m 27s shorter.
Creciente menguante, 4% of the Moon is Illuminated
Hoy
Creciente menguante
Jul 26
Nueva
Ago 3
Cuarto creciente
Ago 10
Luna llena
Ago 17
Cuarto menguante

Extremos de hoy

Máximos del país Bajas del país

Community

WunderPhotos

Upload Photos

1,737,107 ¡fotos cargadas!

Nearby

Calidad del aire

Not available.

Grosos de nieve

Not available.

Actividad de terremotos

Ciudad Distance Mag. Tiempo y dato
No hay informes recientes de la actividad sísmica.
Magnitud mínima muestra es 2,5.

Temperaturas de aguas costeras

Lugar Temperatura
Sin partes meteorológicos de las estaciones

Estaciones meteorológicas cercanas

No hay estaciones meteorológicas personales en esta zona.